Time;durP1;ratioP1;P1;durP2;ratioP2;P2;SDS_P1;SDS_P2;PMS_P1;PMS_P2;Temp;Humidity;BMP_temperature;BMP_pressure;BME280_temperature;BME280_humidity;BME280_pressure;Samples;Min_cycle;Max_cycle;Signal;HPM_P1;HPM_P2
2022/01/10 00:00:38;;;;;;;7.25;3.15;;;;;;;;;;5071507;28;20394;-37
2022/01/10 00:03:04;;;;;;;4.07;2.55;;;;;;;;;;5071642;28;20055;-37
2022/01/10 00:05:30;;;;;;;6.28;2.80;;;;;;;;;;5071543;28;20115;-37
2022/01/10 00:07:55;;;;;;;6.90;2.85;;;;;;;;;;5071732;28;20100;-37
2022/01/10 00:10:21;;;;;;;8.77;3.38;;;;;;;;;;5071437;28;20471;-37
2022/01/10 00:12:46;;;;;;;11.40;3.88;;;;;;;;;;5071442;28;20024;-38
2022/01/10 00:15:15;;;;;;;11.13;3.25;;;;;;;;;;5086967;28;20032;-37
2022/01/10 00:17:41;;;;;;;5.20;2.58;;;;;;;;;;5071275;28;20495;-37
2022/01/10 00:20:08;;;;;;;6.50;3.72;;;;;;;;;;5071636;28;20024;-37
2022/01/10 00:22:34;;;;;;;7.75;2.85;;;;;;;;;;5071356;28;20020;-38
2022/01/10 00:25:00;;;;;;;6.53;2.90;;;;;;;;;;5071420;28;20056;-37
2022/01/10 00:27:25;;;;;;;8.82;2.72;;;;;;;;;;5071651;28;20033;-38
2022/01/10 00:29:50;;;;;;;5.55;2.90;;;;;;;;;;5071271;28;20059;-37
2022/01/10 00:32:17;;;;;;;3.85;2.30;;;;;;;;;;5070076;28;20467;-37
2022/01/10 00:34:43;;;;;;;4.72;2.90;;;;;;;;;;5071213;28;20483;-37
2022/01/10 00:37:08;;;;;;;5.07;2.58;;;;;;;;;;5071173;28;20025;-38
2022/01/10 00:39:34;;;;;;;4.35;2.30;;;;;;;;;;5071159;28;20056;-40
2022/01/10 00:41:59;;;;;;;5.65;2.42;;;;;;;;;;5071049;28;20368;-38
2022/01/10 00:44:27;;;;;;;5.90;2.28;;;;;;;;;;5086672;28;20032;-38
2022/01/10 00:46:53;;;;;;;5.32;3.22;;;;;;;;;;5071406;28;20408;-38
2022/01/10 00:49:18;;;;;;;2.95;2.17;;;;;;;;;;5070987;28;20087;-37
2022/01/10 00:51:44;;;;;;;4.25;2.60;;;;;;;;;;5070946;28;20040;-38
2022/01/10 00:54:10;;;;;;;4.97;2.67;;;;;;;;;;5070995;28;20048;-37
2022/01/10 00:56:35;;;;;;;4.25;2.85;;;;;;;;;;5071013;28;20086;-37
2022/01/10 00:59:01;;;;;;;3.40;2.25;;;;;;;;;;5070853;28;20033;-37
2022/01/10 01:01:27;;;;;;;2.92;1.50;;;;;;;;;;5070952;28;20027;-37
2022/01/10 01:03:53;;;;;;;4.03;1.58;;;;;;;;;;5069599;28;20076;-38
2022/01/10 01:06:19;;;;;;;4.80;2.38;;;;;;;;;;5070951;28;20372;-37
2022/01/10 01:08:45;;;;;;;3.92;2.65;;;;;;;;;;5069321;28;20048;-37
2022/01/10 01:14:06;;;;;;;3.90;2.50;;;;;;;;;;5041289;28;20043;-37
2022/01/10 01:24:22;;;;;;;6.72;2.58;;;;;;;;;;5086423;28;20107;-37
2022/01/10 01:26:49;;;;;;;3.22;1.88;;;;;;;;;;5086275;28;20128;-37
2022/01/10 01:29:20;;;;;;;6.80;2.50;;;;;;;;;;5074075;28;20078;-38
2022/01/10 01:31:46;;;;;;;6.88;3.17;;;;;;;;;;5074711;28;20024;-37
2022/01/10 01:34:13;;;;;;;5.65;2.75;;;;;;;;;;5073023;28;20021;-37
2022/01/10 01:36:39;;;;;;;3.17;2.20;;;;;;;;;;5090089;28;20155;-38
2022/01/10 01:39:15;;;;;;;5.35;2.20;;;;;;;;;;5072695;28;20107;-37
2022/01/10 01:41:42;;;;;;;7.55;2.80;;;;;;;;;;5089938;28;20535;-37
2022/01/10 01:44:08;;;;;;;7.85;2.63;;;;;;;;;;5074252;28;20040;-37
2022/01/10 01:46:35;;;;;;;7.18;3.47;;;;;;;;;;5074256;28;20024;-37
2022/01/10 01:49:01;;;;;;;9.43;3.03;;;;;;;;;;5072631;28;20137;-37
2022/01/10 01:51:27;;;;;;;6.93;2.75;;;;;;;;;;5089638;28;20117;-37
2022/01/10 01:53:52;;;;;;;8.38;3.85;;;;;;;;;;5074062;28;20020;-37
2022/01/10 01:56:19;;;;;;;4.53;1.45;;;;;;;;;;5072652;28;20029;-37
2022/01/10 01:58:45;;;;;;;10.68;3.85;;;;;;;;;;5072754;28;20036;-37
2022/01/10 02:01:11;;;;;;;5.70;2.10;;;;;;;;;;5089559;28;20099;-37
2022/01/10 02:03:38;;;;;;;5.97;2.67;;;;;;;;;;5073922;28;20032;-37
2022/01/10 02:06:05;;;;;;;9.60;2.72;;;;;;;;;;5072531;28;20119;-37
2022/01/10 02:08:34;;;;;;;3.85;2.20;;;;;;;;;;5072392;28;20030;-38
2022/01/10 02:10:59;;;;;;;8.82;3.08;;;;;;;;;;5089211;28;20131;-37
2022/01/10 02:13:26;;;;;;;4.40;2.03;;;;;;;;;;5072495;28;20016;-37
2022/01/10 02:16:02;;;;;;;4.60;2.10;;;;;;;;;;5089175;28;20106;-37
2022/01/10 02:18:33;;;;;;;6.82;2.10;;;;;;;;;;5089267;28;20032;-38
2022/01/10 02:21:04;;;;;;;4.70;2.28;;;;;;;;;;5072157;28;20127;-38
2022/01/10 02:23:32;;;;;;;4.03;1.90;;;;;;;;;;5072213;28;20032;-38
2022/01/10 02:26:13;;;;;;;3.15;2.00;;;;;;;;;;5072207;28;20021;-37
2022/01/10 02:28:40;;;;;;;4.18;2.22;;;;;;;;;;5072051;28;20032;-38
2022/01/10 02:31:07;;;;;;;5.70;2.17;;;;;;;;;;5073217;28;20022;-37
2022/01/10 02:33:32;;;;;;;2.85;2.08;;;;;;;;;;5072086;28;20037;-38
2022/01/10 02:38:51;;;;;;;5.95;1.90;;;;;;;;;;5073096;28;20033;-37
2022/01/10 02:41:25;;;;;;;2.20;1.27;;;;;;;;;;5088750;28;20033;-38
2022/01/10 02:43:52;;;;;;;3.20;1.70;;;;;;;;;;5071854;28;20109;-37
2022/01/10 02:46:19;;;;;;;3.17;2.53;;;;;;;;;;5071724;28;20024;-37
2022/01/10 02:48:45;;;;;;;5.07;2.47;;;;;;;;;;5071566;28;20044;-37
2022/01/10 02:51:11;;;;;;;4.72;2.22;;;;;;;;;;5071693;28;20016;-37
2022/01/10 02:53:36;;;;;;;3.58;2.28;;;;;;;;;;5073218;28;20497;-38
2022/01/10 02:56:03;;;;;;;3.25;1.88;;;;;;;;;;5072834;28;20028;-38
2022/01/10 02:58:28;;;;;;;3.40;1.85;;;;;;;;;;5071464;28;20033;-37
2022/01/10 03:00:54;;;;;;;1.25;1.15;;;;;;;;;;5072663;28;20020;-37
2022/01/10 03:03:20;;;;;;;3.38;2.53;;;;;;;;;;5072748;28;20028;-38
2022/01/10 03:05:46;;;;;;;3.17;1.98;;;;;;;;;;5072592;28;20070;-38
2022/01/10 03:08:11;;;;;;;2.33;1.70;;;;;;;;;;5072649;28;20028;-37
2022/01/10 03:10:37;;;;;;;4.13;2.20;;;;;;;;;;5088027;28;20029;-37
2022/01/10 03:13:02;;;;;;;1.88;1.35;;;;;;;;;;5071127;28;20047;-38
2022/01/10 03:15:29;;;;;;;4.38;1.95;;;;;;;;;;5071239;28;20518;-38
2022/01/10 03:17:54;;;;;;;2.20;1.38;;;;;;;;;;5072352;28;20120;-37
2022/01/10 03:20:22;;;;;;;3.90;1.73;;;;;;;;;;5071106;28;20447;-37
2022/01/10 03:22:47;;;;;;;2.92;1.73;;;;;;;;;;5072211;28;20047;-37
2022/01/10 03:25:13;;;;;;;6.22;2.13;;;;;;;;;;5072612;28;20016;-38
2022/01/10 03:27:42;;;;;;;4.43;1.35;;;;;;;;;;5070869;28;20039;-37
2022/01/10 03:30:10;;;;;;;5.65;1.38;;;;;;;;;;5070769;28;20032;-37
2022/01/10 03:32:37;;;;;;;3.30;1.20;;;;;;;;;;5070972;28;20031;-37
2022/01/10 03:35:13;;;;;;;6.40;1.60;;;;;;;;;;5070831;28;20024;-40
2022/01/10 03:37:39;;;;;;;2.05;1.63;;;;;;;;;;5072155;28;20029;-38
2022/01/10 03:40:06;;;;;;;5.07;1.73;;;;;;;;;;5070474;28;20055;-37
2022/01/10 03:42:31;;;;;;;3.75;1.60;;;;;;;;;;5054091;28;20471;-37
2022/01/10 03:44:57;;;;;;;2.20;1.20;;;;;;;;;;5070683;28;20028;-37
2022/01/10 03:47:23;;;;;;;2.85;1.42;;;;;;;;;;5071920;28;20036;-37
2022/01/10 03:49:49;;;;;;;2.70;1.67;;;;;;;;;;5070187;28;20127;-37
2022/01/10 03:52:15;;;;;;;4.75;1.80;;;;;;;;;;5070173;28;20127;-37
2022/01/10 03:54:40;;;;;;;3.97;1.70;;;;;;;;;;5070514;28;20386;-38
2022/01/10 03:57:06;;;;;;;1.98;1.52;;;;;;;;;;5071660;28;20066;-37
2022/01/10 03:59:31;;;;;;;3.15;1.50;;;;;;;;;;5070368;28;20039;-38
2022/01/10 04:01:57;;;;;;;2.55;1.25;;;;;;;;;;5071830;28;20037;-38
2022/01/10 04:04:23;;;;;;;3.20;1.60;;;;;;;;;;5070254;28;20031;-38
2022/01/10 04:06:49;;;;;;;3.08;1.67;;;;;;;;;;5070307;28;20123;-37
2022/01/10 04:09:17;;;;;;;6.05;1.50;;;;;;;;;;5070205;28;20052;-37
2022/01/10 04:11:43;;;;;;;2.47;1.73;;;;;;;;;;5070108;28;20067;-38
2022/01/10 04:14:08;;;;;;;5.45;1.65;;;;;;;;;;5070255;28;20058;-42
2022/01/10 04:16:34;;;;;;;1.80;1.45;;;;;;;;;;5087103;28;20031;-37
2022/01/10 04:19:00;;;;;;;2.72;1.70;;;;;;;;;;5069986;28;20086;-38
2022/01/10 04:21:25;;;;;;;2.75;1.80;;;;;;;;;;5070160;28;20056;-37
2022/01/10 04:23:51;;;;;;;6.10;1.55;;;;;;;;;;5070005;28;20016;-37
2022/01/10 04:26:17;;;;;;;2.88;1.40;;;;;;;;;;5086901;28;20025;-38
2022/01/10 04:28:45;;;;;;;2.05;0.90;;;;;;;;;;5069794;28;20048;-38
2022/01/10 04:31:12;;;;;;;8.07;1.67;;;;;;;;;;5069951;28;20420;-37
2022/01/10 04:33:38;;;;;;;2.10;1.45;;;;;;;;;;5070083;28;20032;-37
2022/01/10 04:36:04;;;;;;;1.83;1.25;;;;;;;;;;5086724;28;20089;-38
2022/01/10 04:38:29;;;;;;;2.97;1.75;;;;;;;;;;5069924;28;20419;-37
2022/01/10 04:40:55;;;;;;;2.33;1.70;;;;;;;;;;5069678;28;20058;-37
2022/01/10 04:43:21;;;;;;;2.55;1.80;;;;;;;;;;5071203;28;20035;-38
2022/01/10 04:45:46;;;;;;;4.00;1.52;;;;;;;;;;5086611;28;20463;-37
2022/01/10 04:48:12;;;;;;;2.53;1.58;;;;;;;;;;5069731;28;20040;-37
2022/01/10 04:51:11;;;;;;;4.63;1.65;;;;;;;;;;5069846;28;20131;-37
2022/01/10 04:53:38;;;;;;;3.80;1.75;;;;;;;;;;5069866;28;20396;-37
2022/01/10 04:56:03;;;;;;;2.38;1.50;;;;;;;;;;5069776;28;20023;-37
2022/01/10 04:58:30;;;;;;;3.75;1.70;;;;;;;;;;5069702;28;20063;-37
2022/01/10 05:00:55;;;;;;;1.48;1.20;;;;;;;;;;5069579;28;20475;-38
2022/01/10 05:03:23;;;;;;;2.97;1.67;;;;;;;;;;5088566;28;20032;-38
2022/01/10 05:05:53;;;;;;;3.47;1.65;;;;;;;;;;5073610;28;20016;-38
2022/01/10 05:08:20;;;;;;;2.22;1.63;;;;;;;;;;5073605;28;20055;-37
2022/01/10 05:10:47;;;;;;;2.15;1.70;;;;;;;;;;5073433;28;20071;-38
2022/01/10 05:13:12;;;;;;;3.63;1.60;;;;;;;;;;5090472;28;20045;-37
2022/01/10 05:15:38;;;;;;;3.28;1.90;;;;;;;;;;5073479;28;20067;-38
2022/01/10 05:18:04;;;;;;;1.30;1.20;;;;;;;;;;5073379;28;20632;-38
2022/01/10 05:20:30;;;;;;;4.63;1.65;;;;;;;;;;5074984;28;20020;-37
2022/01/10 05:22:56;;;;;;;2.17;1.40;;;;;;;;;;5074498;28;20059;-38
2022/01/10 05:25:21;;;;;;;2.42;1.85;;;;;;;;;;5073321;28;20070;-37
2022/01/10 05:27:47;;;;;;;3.10;1.58;;;;;;;;;;5073191;28;20040;-37
2022/01/10 05:30:12;;;;;;;3.63;2.35;;;;;;;;;;5072784;28;20036;-37
2022/01/10 05:32:38;;;;;;;3.90;1.98;;;;;;;;;;5074641;28;20039;-37
2022/01/10 05:35:24;;;;;;;2.80;1.40;;;;;;;;;;5073957;28;20063;-37
2022/01/10 05:37:49;;;;;;;3.08;1.98;;;;;;;;;;5089957;28;20470;-38
2022/01/10 05:40:15;;;;;;;3.28;1.95;;;;;;;;;;5074201;28;20091;-37
2022/01/10 05:42:41;;;;;;;6.10;1.75;;;;;;;;;;5074615;28;20110;-38
2022/01/10 05:45:07;;;;;;;2.63;1.50;;;;;;;;;;5072901;28;20108;-38
2022/01/10 05:47:40;;;;;;;1.65;1.48;;;;;;;;;;5072929;28;20028;-37
2022/01/10 05:50:06;;;;;;;2.72;1.98;;;;;;;;;;5089550;28;20044;-37
2022/01/10 05:52:37;;;;;;;4.10;1.80;;;;;;;;;;5072814;28;20387;-38
2022/01/10 05:55:04;;;;;;;3.45;1.58;;;;;;;;;;5072737;28;20024;-38
2022/01/10 05:57:29;;;;;;;2.70;1.42;;;;;;;;;;5072663;28;20028;-37
2022/01/10 05:59:55;;;;;;;2.78;1.67;;;;;;;;;;5074081;28;20024;-37
2022/01/10 06:02:20;;;;;;;1.92;1.50;;;;;;;;;;5072638;28;20024;-37
2022/01/10 06:04:47;;;;;;;4.15;1.58;;;;;;;;;;5089303;28;20403;-37
2022/01/10 06:07:23;;;;;;;1.38;1.15;;;;;;;;;;5072412;28;20418;-37
2022/01/10 06:09:49;;;;;;;2.40;1.70;;;;;;;;;;5072330;28;20041;-38
2022/01/10 06:12:15;;;;;;;4.18;1.83;;;;;;;;;;5072492;28;20091;-37
2022/01/10 06:14:40;;;;;;;4.15;2.40;;;;;;;;;;5071905;28;20025;-37
2022/01/10 06:17:06;;;;;;;1.98;1.75;;;;;;;;;;5072325;28;20360;-37
2022/01/10 06:19:31;;;;;;;4.10;2.00;;;;;;;;;;5073568;28;20029;-37
2022/01/10 06:21:57;;;;;;;2.83;1.00;;;;;;;;;;5073782;28;20386;-38
2022/01/10 06:24:22;;;;;;;5.05;1.95;;;;;;;;;;5072298;28;20498;-37
2022/01/10 06:26:48;;;;;;;3.03;2.35;;;;;;;;;;5072093;28;20025;-38
2022/01/10 06:29:14;;;;;;;3.75;1.80;;;;;;;;;;5073361;28;20119;-38
2022/01/10 06:31:40;;;;;;;4.68;1.83;;;;;;;;;;5072191;28;20103;-38
2022/01/10 06:34:10;;;;;;;5.45;1.75;;;;;;;;;;5088829;28;20082;-37
2022/01/10 06:36:36;;;;;;;4.25;1.95;;;;;;;;;;5072083;28;20028;-38
2022/01/10 06:39:04;;;;;;;1.85;1.50;;;;;;;;;;5088481;28;20036;-37
2022/01/10 06:41:31;;;;;;;4.90;2.47;;;;;;;;;;5071940;28;20082;-37
2022/01/10 06:43:56;;;;;;;2.17;1.10;;;;;;;;;;5071907;28;20056;-38
2022/01/10 06:46:22;;;;;;;3.15;1.85;;;;;;;;;;5073080;28;20458;-37
2022/01/10 06:48:48;;;;;;;2.47;1.70;;;;;;;;;;5071661;28;20071;-37
2022/01/10 06:51:13;;;;;;;3.67;1.70;;;;;;;;;;5073253;28;20046;-38
2022/01/10 06:53:42;;;;;;;2.15;1.52;;;;;;;;;;5071715;28;20516;-37
2022/01/10 06:56:09;;;;;;;3.05;1.63;;;;;;;;;;5071640;28;20012;-37
2022/01/10 06:58:37;;;;;;;3.17;1.45;;;;;;;;;;5071578;28;20509;-37
2022/01/10 07:01:07;;;;;;;2.92;1.73;;;;;;;;;;5072057;28;20020;-37
2022/01/10 07:03:32;;;;;;;2.58;1.58;;;;;;;;;;5073012;28;20089;-37
2022/01/10 07:06:10;;;;;;;4.20;2.20;;;;;;;;;;5071456;28;20411;-37
2022/01/10 07:08:35;;;;;;;4.35;2.25;;;;;;;;;;5088129;28;20059;-37
2022/01/10 07:11:01;;;;;;;4.03;2.22;;;;;;;;;;5088443;28;20029;-37
2022/01/10 07:13:29;;;;;;;3.35;1.75;;;;;;;;;;5088227;28;20032;-38
2022/01/10 07:15:58;;;;;;;2.70;1.77;;;;;;;;;;5071172;28;20029;-38
2022/01/10 07:18:24;;;;;;;4.57;2.00;;;;;;;;;;5071187;28;20397;-38
2022/01/10 07:20:54;;;;;;;2.25;1.50;;;;;;;;;;5071124;28;20090;-38
2022/01/10 07:23:22;;;;;;;3.83;2.00;;;;;;;;;;5071114;28;20029;-37
2022/01/10 07:25:49;;;;;;;4.43;3.03;;;;;;;;;;5071389;28;20086;-38
2022/01/10 07:28:14;;;;;;;2.33;2.13;;;;;;;;;;5072491;28;20091;-38
2022/01/10 07:30:40;;;;;;;2.60;1.38;;;;;;;;;;5072284;28;20484;-37
2022/01/10 07:33:05;;;;;;;3.85;1.80;;;;;;;;;;5072377;28;20032;-38
2022/01/10 07:35:31;;;;;;;3.70;2.10;;;;;;;;;;5072467;28;20021;-37
2022/01/10 07:37:56;;;;;;;3.42;2.10;;;;;;;;;;5071973;28;20390;-37
2022/01/10 07:40:22;;;;;;;2.92;2.15;;;;;;;;;;5071868;28;20390;-38
2022/01/10 07:42:47;;;;;;;2.03;1.83;;;;;;;;;;5072010;28;20059;-37
2022/01/10 07:45:19;;;;;;;4.32;1.10;;;;;;;;;;5070617;28;20047;-38
2022/01/10 07:47:45;;;;;;;2.60;1.77;;;;;;;;;;5087540;28;20498;-37
2022/01/10 07:50:10;;;;;;;1.75;1.48;;;;;;;;;;5070396;28;20036;-37
2022/01/10 07:52:36;;;;;;;2.53;1.67;;;;;;;;;;5087455;28;20033;-37
2022/01/10 07:55:02;;;;;;;3.00;1.48;;;;;;;;;;5072047;28;20497;-37
2022/01/10 07:57:28;;;;;;;2.97;1.55;;;;;;;;;;5071691;28;20033;-41
2022/01/10 07:59:53;;;;;;;3.38;2.30;;;;;;;;;;5071563;28;20027;-37
2022/01/10 08:02:20;;;;;;;8.55;2.60;;;;;;;;;;5071670;28;20037;-37
2022/01/10 08:04:46;;;;;;;4.07;1.55;;;;;;;;;;5071557;28;20031;-37
2022/01/10 08:07:12;;;;;;;5.38;2.95;;;;;;;;;;5071544;28;20033;-38
2022/01/10 08:09:38;;;;;;;6.22;2.20;;;;;;;;;;5071466;28;20039;-37
2022/01/10 08:12:03;;;;;;;1.67;1.50;;;;;;;;;;5071500;28;20035;-38
2022/01/10 08:14:30;;;;;;;5.40;1.70;;;;;;;;;;5071849;28;20522;-38
2022/01/10 08:16:56;;;;;;;5.32;2.25;;;;;;;;;;5071337;28;20471;-37
2022/01/10 08:19:22;;;;;;;2.10;1.60;;;;;;;;;;5071668;28;20107;-37
2022/01/10 08:21:48;;;;;;;5.10;2.05;;;;;;;;;;5071268;28;20032;-37
2022/01/10 08:24:17;;;;;;;2.58;1.60;;;;;;;;;;5071663;28;20104;-38
2022/01/10 08:26:42;;;;;;;1.67;1.35;;;;;;;;;;5071345;28;20032;-38
2022/01/10 08:29:08;;;;;;;2.75;1.73;;;;;;;;;;5071047;28;20097;-38
2022/01/10 08:31:33;;;;;;;4.45;1.90;;;;;;;;;;5071357;28;20028;-37
2022/01/10 08:34:04;;;;;;;2.47;2.00;;;;;;;;;;5086792;28;20032;-38
2022/01/10 08:36:30;;;;;;;3.05;2.13;;;;;;;;;;5071348;28;20129;-37
2022/01/10 08:38:55;;;;;;;5.22;2.00;;;;;;;;;;5071013;28;20467;-37
2022/01/10 08:41:21;;;;;;;3.25;1.70;;;;;;;;;;5071155;28;20033;-38
2022/01/10 08:43:47;;;;;;;3.38;1.40;;;;;;;;;;5071270;28;20029;-38
2022/01/10 08:46:12;;;;;;;1.77;1.30;;;;;;;;;;5071374;28;20033;-38
2022/01/10 08:48:38;;;;;;;5.03;2.55;;;;;;;;;;5071008;28;20487;-38
2022/01/10 08:51:03;;;;;;;1.38;1.20;;;;;;;;;;5071350;28;20024;-38
2022/01/10 08:53:29;;;;;;;1.45;1.00;;;;;;;;;;5071013;28;20094;-38
2022/01/10 08:55:55;;;;;;;2.42;1.40;;;;;;;;;;5071093;28;20035;-37
2022/01/10 08:58:21;;;;;;;2.65;1.05;;;;;;;;;;5070995;28;20367;-37
2022/01/10 09:00:48;;;;;;;2.40;0.90;;;;;;;;;;5071030;28;20028;-37
2022/01/10 09:03:13;;;;;;;1.25;0.93;;;;;;;;;;5071248;28;20409;-37
2022/01/10 09:05:39;;;;;;;3.47;1.48;;;;;;;;;;5071272;28;20041;-37
2022/01/10 09:08:06;;;;;;;4.25;1.83;;;;;;;;;;5070873;28;20451;-37
2022/01/10 09:10:31;;;;;;;2.15;1.20;;;;;;;;;;5070811;28;20371;-38
2022/01/10 09:12:57;;;;;;;2.28;1.00;;;;;;;;;;5070896;28;20035;-38
2022/01/10 09:15:23;;;;;;;1.83;1.13;;;;;;;;;;5071071;28;20035;-37
2022/01/10 09:17:49;;;;;;;1.92;1.25;;;;;;;;;;5070705;28;20017;-37
2022/01/10 09:20:14;;;;;;;6.00;0.88;;;;;;;;;;5070820;28;20028;-37
2022/01/10 09:22:40;;;;;;;3.08;1.20;;;;;;;;;;5070822;28;20056;-37
2022/01/10 09:25:06;;;;;;;1.85;1.20;;;;;;;;;;5071038;28;20116;-37
2022/01/10 09:27:31;;;;;;;3.03;1.00;;;;;;;;;;5069619;28;20394;-37
2022/01/10 09:29:57;;;;;;;2.42;1.10;;;;;;;;;;5070850;28;20040;-37
2022/01/10 09:32:23;;;;;;;2.40;0.95;;;;;;;;;;5071015;28;20451;-37
2022/01/10 09:34:48;;;;;;;1.48;1.08;;;;;;;;;;5070810;28;20028;-38
2022/01/10 09:37:13;;;;;;;2.80;1.02;;;;;;;;;;5070587;28;20390;-37
2022/01/10 09:39:39;;;;;;;2.58;1.23;;;;;;;;;;5070458;28;20084;-37
2022/01/10 09:42:05;;;;;;;1.48;1.15;;;;;;;;;;5070685;28;20032;-38
2022/01/10 09:44:30;;;;;;;0.93;0.90;;;;;;;;;;5069387;28;20037;-38
2022/01/10 09:46:56;;;;;;;2.05;1.85;;;;;;;;;;5070436;28;20025;-38
2022/01/10 09:49:22;;;;;;;1.65;1.25;;;;;;;;;;5072199;28;20050;-38
2022/01/10 09:51:48;;;;;;;2.55;0.68;;;;;;;;;;5089806;28;20458;-38
2022/01/10 09:54:14;;;;;;;2.10;0.95;;;;;;;;;;5074256;28;20028;-37
2022/01/10 09:56:40;;;;;;;0.75;0.70;;;;;;;;;;5074394;28;20017;-38
2022/01/10 09:59:06;;;;;;;1.40;0.95;;;;;;;;;;5073908;28;20385;-37
2022/01/10 10:01:32;;;;;;;0.60;0.60;;;;;;;;;;5073961;28;20025;-37
2022/01/10 10:04:01;;;;;;;2.65;1.15;;;;;;;;;;5089519;28;20079;-37
2022/01/10 10:06:27;;;;;;;1.00;0.82;;;;;;;;;;5073856;28;20434;-38
2022/01/10 10:08:56;;;;;;;1.33;0.93;;;;;;;;;;5073926;28;20075;-38
2022/01/10 10:11:21;;;;;;;1.33;0.88;;;;;;;;;;5073905;28;20848;-38
2022/01/10 10:13:54;;;;;;;2.15;0.88;;;;;;;;;;5073660;28;20120;-38
2022/01/10 10:16:20;;;;;;;0.85;0.73;;;;;;;;;;5074141;28;20075;-38
2022/01/10 10:18:47;;;;;;;0.60;0.60;;;;;;;;;;5073927;28;20025;-38
2022/01/10 10:21:14;;;;;;;0.80;0.80;;;;;;;;;;5073709;28;20029;-38
2022/01/10 10:23:46;;;;;;;1.65;0.95;;;;;;;;;;5073654;28;20056;-38
2022/01/10 10:26:15;;;;;;;1.98;0.85;;;;;;;;;;5073476;28;20025;-38
2022/01/10 10:28:44;;;;;;;1.27;0.85;;;;;;;;;;5073610;28;20111;-37
2022/01/10 10:31:10;;;;;;;1.10;1.10;;;;;;;;;;5073284;28;20044;-38
2022/01/10 10:33:45;;;;;;;1.88;0.80;;;;;;;;;;5073722;28;20020;-37
2022/01/10 10:36:12;;;;;;;1.95;0.68;;;;;;;;;;5073198;28;20398;-37
2022/01/10 10:38:38;;;;;;;1.40;0.93;;;;;;;;;;5073286;28;20033;-37
2022/01/10 10:41:05;;;;;;;6.00;1.08;;;;;;;;;;5073043;28;20124;-38
2022/01/10 10:43:33;;;;;;;0.70;0.70;;;;;;;;;;5073131;28;20056;-37
2022/01/10 10:46:02;;;;;;;1.10;0.73;;;;;;;;;;5073124;28;20029;-37
2022/01/10 10:48:29;;;;;;;2.05;0.80;;;;;;;;;;5073226;28;20060;-38
2022/01/10 10:50:57;;;;;;;3.25;0.88;;;;;;;;;;5072946;28;20070;-38
2022/01/10 10:53:26;;;;;;;2.47;1.10;;;;;;;;;;5071744;28;20021;-37
2022/01/10 10:55:51;;;;;;;2.95;1.17;;;;;;;;;;5073143;28;20025;-37
2022/01/10 10:58:17;;;;;;;7.60;1.42;;;;;;;;;;5073189;28;20375;-37
2022/01/10 11:00:42;;;;;;;2.03;0.75;;;;;;;;;;5073075;28;20029;-38
2022/01/10 11:03:10;;;;;;;2.70;1.05;;;;;;;;;;5073071;28;20055;-38
2022/01/10 11:05:36;;;;;;;1.40;1.20;;;;;;;;;;5072690;28;20028;-37
2022/01/10 11:08:03;;;;;;;0.73;0.70;;;;;;;;;;5072583;28;20063;-38
2022/01/10 11:10:29;;;;;;;2.00;0.82;;;;;;;;;;5072513;28;20075;-38
2022/01/10 11:12:55;;;;;;;0.50;0.50;;;;;;;;;;5072589;28;20055;-38
2022/01/10 11:15:24;;;;;;;0.95;0.70;;;;;;;;;;5072937;28;20024;-37
2022/01/10 11:17:52;;;;;;;0.82;0.68;;;;;;;;;;5088297;28;20021;-37
2022/01/10 11:20:20;;;;;;;2.38;0.88;;;;;;;;;;5072434;28;20463;-37
2022/01/10 11:22:50;;;;;;;1.42;0.95;;;;;;;;;;5072494;28;20073;-38
2022/01/10 11:25:32;;;;;;;1.17;0.70;;;;;;;;;;5072322;28;20464;-38
2022/01/10 11:28:06;;;;;;;4.75;0.88;;;;;;;;;;5072159;28;20124;-37
2022/01/10 11:30:44;;;;;;;0.60;0.55;;;;;;;;;;5072493;28;20106;-37
2022/01/10 11:33:09;;;;;;;0.50;0.50;;;;;;;;;;5072085;28;20082;-37
2022/01/10 11:35:43;;;;;;;0.88;0.75;;;;;;;;;;5072283;28;20029;-38
2022/01/10 11:38:15;;;;;;;1.45;0.82;;;;;;;;;;5072278;28;20123;-38
2022/01/10 11:40:42;;;;;;;0.80;0.80;;;;;;;;;;5071945;28;20037;-37
2022/01/10 11:43:07;;;;;;;0.60;0.40;;;;;;;;;;5071968;28;20051;-37
2022/01/10 11:45:40;;;;;;;0.60;0.40;;;;;;;;;;5072225;28;20037;-38
2022/01/10 11:48:06;;;;;;;1.48;0.60;;;;;;;;;;5071959;28;20111;-38
2022/01/10 11:50:32;;;;;;;1.48;0.60;;;;;;;;;;5071884;28;20116;-37
2022/01/10 11:53:00;;;;;;;0.60;0.60;;;;;;;;;;5072074;28;20032;-37
2022/01/10 11:55:50;;;;;;;0.50;0.50;;;;;;;;;;5071824;28;20021;-37
2022/01/10 11:58:16;;;;;;;1.23;0.80;;;;;;;;;;5071916;28;20032;-38
2022/01/10 12:00:42;;;;;;;1.00;0.63;;;;;;;;;;5071719;28;20123;-37
2022/01/10 12:03:07;;;;;;;0.32;0.32;;;;;;;;;;5070418;28;20055;-38
2022/01/10 12:05:33;;;;;;;0.73;0.50;;;;;;;;;;5071947;28;20021;-38
2022/01/10 12:08:01;;;;;;;1.02;0.63;;;;;;;;;;5071740;28;20475;-38
2022/01/10 12:10:27;;;;;;;0.88;0.50;;;;;;;;;;5071486;28;20037;-38
2022/01/10 12:12:59;;;;;;;1.67;0.68;;;;;;;;;;5071035;28;20040;-38
2022/01/10 12:15:28;;;;;;;0.30;0.30;;;;;;;;;;5071842;28;20025;-37
2022/01/10 12:17:54;;;;;;;0.30;0.30;;;;;;;;;;5071346;28;20490;-38
2022/01/10 12:20:19;;;;;;;0.40;0.40;;;;;;;;;;5071509;28;20063;-38
2022/01/10 12:22:45;;;;;;;0.50;0.40;;;;;;;;;;5071601;28;20509;-38
2022/01/10 12:25:11;;;;;;;0.88;0.40;;;;;;;;;;5071392;28;20028;-38
2022/01/10 12:27:36;;;;;;;1.27;0.50;;;;;;;;;;5071537;28;20056;-38
2022/01/10 12:30:03;;;;;;;1.75;0.60;;;;;;;;;;5070996;28;20129;-38
2022/01/10 12:32:32;;;;;;;0.28;0.28;;;;;;;;;;5071630;28;20024;-37
2022/01/10 12:34:57;;;;;;;0.50;0.50;;;;;;;;;;5071137;28;20548;-40
2022/01/10 12:37:26;;;;;;;0.60;0.40;;;;;;;;;;5071301;28;20103;-38
2022/01/10 12:39:52;;;;;;;0.45;0.45;;;;;;;;;;5071010;28;20052;-37
2022/01/10 12:42:18;;;;;;;0.47;0.45;;;;;;;;;;5071480;28;20028;-38
2022/01/10 12:44:44;;;;;;;0.20;0.20;;;;;;;;;;5071265;28;20025;-38
2022/01/10 12:47:10;;;;;;;0.50;0.50;;;;;;;;;;5071162;28;20016;-38
2022/01/10 12:49:36;;;;;;;0.30;0.30;;;;;;;;;;5071049;28;20040;-37
2022/01/10 12:52:03;;;;;;;0.10;0.10;;;;;;;;;;5071395;28;20020;-38
2022/01/10 12:54:29;;;;;;;0.55;0.30;;;;;;;;;;5071111;28;20033;-37
2022/01/10 12:56:55;;;;;;;0.52;0.38;;;;;;;;;;5071347;28;20356;-37
2022/01/10 12:59:23;;;;;;;0.20;0.20;;;;;;;;;;5071074;28;20104;-38
2022/01/10 13:01:49;;;;;;;0.38;0.30;;;;;;;;;;5071083;28;20024;-38
2022/01/10 13:04:19;;;;;;;0.30;0.30;;;;;;;;;;5071218;28;20078;-38
2022/01/10 13:06:46;;;;;;;0.82;0.40;;;;;;;;;;5070918;28;20040;-37
2022/01/10 13:09:15;;;;;;;0.30;0.30;;;;;;;;;;5070872;28;20036;-37
2022/01/10 13:11:44;;;;;;;0.30;0.30;;;;;;;;;;5071247;28;20538;-37
2022/01/10 13:14:11;;;;;;;0.38;0.30;;;;;;;;;;5070870;28;20036;-37
2022/01/10 13:16:37;;;;;;;0.17;0.17;;;;;;;;;;5070891;28;20013;-38
2022/01/10 13:19:08;;;;;;;0.20;0.20;;;;;;;;;;5071039;28;20032;-38
2022/01/10 13:21:37;;;;;;;0.20;0.20;;;;;;;;;;5070890;28;20033;-38
2022/01/10 13:24:06;;;;;;;0.30;0.30;;;;;;;;;;5072702;28;20070;-37
2022/01/10 13:26:31;;;;;;;6.38;0.43;;;;;;;;;;5074660;28;20028;-37
2022/01/10 13:28:57;;;;;;;2.25;0.32;;;;;;;;;;5074438;28;20378;-37
2022/01/10 13:31:43;;;;;;;0.30;0.30;;;;;;;;;;5074555;28;20478;-37
2022/01/10 13:34:24;;;;;;;0.30;0.30;;;;;;;;;;5074259;28;20068;-37
2022/01/10 13:36:50;;;;;;;0.30;0.30;;;;;;;;;;5074565;28;20039;-38
2022/01/10 13:39:16;;;;;;;0.52;0.45;;;;;;;;;;5074139;28;20041;-38
2022/01/10 13:41:55;;;;;;;0.57;0.20;;;;;;;;;;5074394;28;20024;-38
2022/01/10 13:44:21;;;;;;;0.35;0.35;;;;;;;;;;5074280;28;20035;-38
2022/01/10 13:46:47;;;;;;;0.30;0.30;;;;;;;;;;5074605;28;20025;-38
2022/01/10 13:49:25;;;;;;;0.30;0.30;;;;;;;;;;5073957;28;20513;-38
2022/01/10 13:52:07;;;;;;;0.68;0.50;;;;;;;;;;5074269;28;20028;-38
2022/01/10 13:54:32;;;;;;;1.75;0.45;;;;;;;;;;5074334;28;20036;-38
2022/01/10 13:57:12;;;;;;;0.30;0.30;;;;;;;;;;5074395;28;20506;-37
2022/01/10 13:59:38;;;;;;;0.20;0.20;;;;;;;;;;5074256;28;20059;-38
2022/01/10 14:02:04;;;;;;;0.43;0.30;;;;;;;;;;5073888;28;20463;-38
2022/01/10 14:04:34;;;;;;;0.20;0.20;;;;;;;;;;5073900;28;20036;-38
2022/01/10 14:07:05;;;;;;;0.38;0.38;;;;;;;;;;5074074;28;20039;-38
2022/01/10 14:09:32;;;;;;;0.52;0.30;;;;;;;;;;5073627;28;20037;-37
2022/01/10 14:11:57;;;;;;;0.20;0.20;;;;;;;;;;5073785;28;20455;-38
2022/01/10 14:14:27;;;;;;;0.32;0.32;;;;;;;;;;5073794;28;20038;-38
2022/01/10 14:16:55;;;;;;;0.28;0.28;;;;;;;;;;5073532;28;20039;-37
2022/01/10 14:19:24;;;;;;;0.40;0.40;;;;;;;;;;5073661;28;20032;-37
2022/01/10 14:21:51;;;;;;;0.30;0.30;;;;;;;;;;5073896;28;20047;-37
2022/01/10 14:24:19;;;;;;;0.30;0.30;;;;;;;;;;5073497;28;20029;-37
2022/01/10 14:26:46;;;;;;;0.40;0.40;;;;;;;;;;5073550;28;20475;-38
2022/01/10 14:29:12;;;;;;;0.30;0.30;;;;;;;;;;5073517;28;20071;-39
2022/01/10 14:31:37;;;;;;;0.40;0.40;;;;;;;;;;5073446;28;20456;-37
2022/01/10 14:34:03;;;;;;;0.30;0.30;;;;;;;;;;5073175;28;20472;-37
2022/01/10 14:36:29;;;;;;;3.13;1.20;;;;;;;;;;5073452;28;20029;-38
2022/01/10 14:38:55;;;;;;;0.20;0.20;;;;;;;;;;5073473;28;20044;-38
2022/01/10 14:41:23;;;;;;;0.30;0.30;;;;;;;;;;5073079;28;20568;-39
2022/01/10 14:43:53;;;;;;;0.47;0.35;;;;;;;;;;5073333;28;20048;-42
2022/01/10 14:46:19;;;;;;;0.38;0.38;;;;;;;;;;5073217;28;20119;-38
2022/01/10 14:48:46;;;;;;;0.30;0.30;;;;;;;;;;5073074;28;20025;-38
2022/01/10 14:51:14;;;;;;;0.20;0.20;;;;;;;;;;5073017;28;20095;-37
2022/01/10 14:53:41;;;;;;;0.35;0.35;;;;;;;;;;5073314;28;20032;-38
2022/01/10 14:56:09;;;;;;;0.43;0.43;;;;;;;;;;5073068;28;20020;-37